Harbine, Nebraska
Current Conditions -  °F | °C
As of 1:35 AM on Wednesday 22 Oct 2014 (Local Time) from KBIE Reporting Station
Clear Clear  
Wind Chill: 58°   Ceiling: Unl
Heat Index: 58°   Visibility: 10mi
Dew Point: 45°   Wind: 12mph
Humidity: 60%   Direction: 140°SE
Pressure: 30.04"   Gusts: NA
Location:  40.219°N, 97.0292°W
Report Text: KBIE 220635Z AUTO 14010KT 10SM CLR 15/07 A3004 RMK AO2 T01460070
Loading
Personal Weather Stations






























Interactive Weather Map New forecast layout! Learn more

10-Day Weather Forecast

Advertisements
Track Severe Weather on mobile